createdAt,value
2018-09-15T00:01:49.196Z,14.50
2018-09-15T00:04:17.400Z,14.40
2018-09-15T00:06:45.628Z,14.30
2018-09-15T00:09:13.847Z,14.30
2018-09-15T00:11:42.097Z,14.20
2018-09-15T00:14:10.340Z,14.10
2018-09-15T00:16:38.651Z,14.10
2018-09-15T00:19:06.884Z,14.00
2018-09-15T00:21:35.140Z,13.90
2018-09-15T00:24:04.264Z,13.90
2018-09-15T00:26:32.588Z,13.90
2018-09-15T00:29:00.824Z,13.80
2018-09-15T00:31:29.085Z,13.80
2018-09-15T00:33:57.302Z,13.90
2018-09-15T00:36:25.495Z,13.90
2018-09-15T00:38:53.755Z,13.90
2018-09-15T00:41:21.993Z,14.00
2018-09-15T00:43:50.345Z,14.00
2018-09-15T00:46:18.584Z,14.00
2018-09-15T00:48:46.863Z,14.00
2018-09-15T00:51:15.098Z,14.00
2018-09-15T00:53:43.343Z,14.00
2018-09-15T00:56:11.584Z,14.00
2018-09-15T00:58:39.819Z,14.10
2018-09-15T01:01:08.029Z,14.20
2018-09-15T01:03:37.016Z,14.30
2018-09-15T01:06:05.302Z,14.30
2018-09-15T01:08:33.627Z,14.40
2018-09-15T01:11:01.873Z,14.50
2018-09-15T01:13:30.987Z,14.50
2018-09-15T01:15:59.215Z,14.40
2018-09-15T01:18:27.448Z,14.40
2018-09-15T01:20:55.649Z,14.30
2018-09-15T01:23:23.844Z,14.30
2018-09-15T01:25:52.064Z,14.30
2018-09-15T01:28:20.271Z,14.20
2018-09-15T01:30:48.460Z,14.20
2018-09-15T01:33:16.693Z,14.20
2018-09-15T01:35:44.986Z,14.30
2018-09-15T01:38:13.632Z,14.30
2018-09-15T01:40:41.891Z,14.30
2018-09-15T01:43:10.160Z,14.30
2018-09-15T01:45:38.416Z,14.40
2018-09-15T01:48:06.697Z,14.40
2018-09-15T01:50:34.920Z,14.40
2018-09-15T01:53:03.535Z,14.40
2018-09-15T01:55:31.880Z,14.50
2018-09-15T01:58:00.134Z,14.50
2018-09-15T02:00:28.369Z,14.50
2018-09-15T02:02:57.016Z,14.50
2018-09-15T02:05:25.239Z,14.60
2018-09-15T02:07:53.460Z,14.60
2018-09-15T02:10:21.711Z,14.60
2018-09-15T02:12:49.933Z,14.60
2018-09-15T02:15:18.136Z,14.60
2018-09-15T02:17:46.352Z,14.70
2018-09-15T02:20:14.555Z,14.70
2018-09-15T02:22:42.924Z,14.70
2018-09-15T02:25:11.024Z,14.70
2018-09-15T02:27:39.298Z,14.60
2018-09-15T02:30:07.537Z,14.60
2018-09-15T02:32:35.792Z,14.50
2018-09-15T02:35:04.024Z,14.50
2018-09-15T02:37:32.266Z,14.50
2018-09-15T02:40:00.532Z,14.40
2018-09-15T02:42:28.789Z,14.40
2018-09-15T02:44:57.028Z,14.40
2018-09-15T02:47:25.263Z,14.40
2018-09-15T02:49:53.488Z,14.40
2018-09-15T02:52:21.691Z,14.40
2018-09-15T02:54:49.970Z,14.40
2018-09-15T02:57:18.144Z,14.40
2018-09-15T02:59:46.388Z,14.30
2018-09-15T03:02:14.603Z,14.20
2018-09-15T03:04:43.072Z,14.20
2018-09-15T03:07:11.301Z,14.10
2018-09-15T03:09:39.564Z,14.10
2018-09-15T03:12:07.828Z,14.00
2018-09-15T03:14:36.080Z,13.90
2018-09-15T03:17:04.344Z,13.80
2018-09-15T03:19:32.612Z,13.70
2018-09-15T03:22:00.861Z,13.60
2018-09-15T03:24:29.097Z,13.50
2018-09-15T03:26:57.304Z,13.40
2018-09-15T03:29:25.548Z,13.30
2018-09-15T03:31:53.769Z,13.30
2018-09-15T03:34:22.015Z,13.20
2018-09-15T03:36:50.259Z,13.20
2018-09-15T03:39:18.505Z,13.10
2018-09-15T03:41:46.857Z,13.10
2018-09-15T03:44:14.975Z,13.10
2018-09-15T03:46:43.220Z,13.20
2018-09-15T03:49:11.443Z,13.20
2018-09-15T03:51:39.683Z,13.20
2018-09-15T03:54:08.664Z,13.10
2018-09-15T03:56:36.930Z,13.10
2018-09-15T03:59:05.150Z,13.00
2018-09-15T04:01:33.405Z,13.00
2018-09-15T04:04:01.680Z,13.10
2018-09-15T04:06:29.924Z,13.10
2018-09-15T04:08:58.220Z,13.10
2018-09-15T04:11:26.423Z,13.00
2018-09-15T04:13:54.737Z,13.00
2018-09-15T04:16:22.975Z,12.90
2018-09-15T04:18:51.203Z,12.90
2018-09-15T04:21:19.396Z,12.80
2018-09-15T04:23:47.610Z,12.80
2018-09-15T04:26:15.805Z,12.80
2018-09-15T04:28:44.271Z,12.90
2018-09-15T04:31:12.496Z,13.00
2018-09-15T04:33:40.809Z,13.00
2018-09-15T04:36:09.072Z,13.10
2018-09-15T04:38:37.400Z,13.10
2018-09-15T04:41:06.033Z,13.20
2018-09-15T04:43:34.301Z,13.30
2018-09-15T04:46:02.583Z,13.50
2018-09-15T04:48:30.892Z,13.50
2018-09-15T04:50:59.886Z,13.60
2018-09-15T04:53:28.113Z,13.60
2018-09-15T04:55:56.323Z,13.60
2018-09-15T04:58:24.543Z,13.70
2018-09-15T05:00:52.767Z,13.70
2018-09-15T05:03:21.033Z,13.80
2018-09-15T05:05:49.279Z,13.90
2018-09-15T05:08:17.516Z,13.90
2018-09-15T05:10:45.775Z,13.90
2018-09-15T05:13:14.028Z,13.90
2018-09-15T05:15:42.295Z,13.90
2018-09-15T05:18:10.549Z,14.00
2018-09-15T05:20:38.792Z,14.00
2018-09-15T05:23:07.126Z,14.00
2018-09-15T05:25:35.369Z,14.00
2018-09-15T05:28:03.595Z,14.10
2018-09-15T05:30:31.856Z,14.10
2018-09-15T05:33:00.119Z,14.10
2018-09-15T05:35:28.987Z,14.20
2018-09-15T05:37:57.219Z,14.30
2018-09-15T05:40:25.477Z,14.30
2018-09-15T05:42:53.729Z,14.30
2018-09-15T05:45:21.960Z,14.30
2018-09-15T05:47:50.428Z,14.40
2018-09-15T05:50:18.682Z,14.50
2018-09-15T05:52:46.921Z,14.50
2018-09-15T05:55:15.188Z,14.50
2018-09-15T05:57:43.423Z,14.50
2018-09-15T06:00:11.667Z,14.40
2018-09-15T06:02:39.912Z,14.30
2018-09-15T06:05:08.177Z,14.30
2018-09-15T06:07:36.395Z,14.30
2018-09-15T06:10:04.941Z,14.40
2018-09-15T06:12:33.176Z,14.30
2018-09-15T06:15:01.440Z,14.60
2018-09-15T06:17:29.669Z,15.90
2018-09-15T06:19:57.929Z,16.10
2018-09-15T06:22:26.214Z,16.60
2018-09-15T06:24:55.255Z,17.90
2018-09-15T06:27:23.508Z,18.40
2018-09-15T06:29:51.736Z,18.40
2018-09-15T06:32:19.955Z,18.00
2018-09-15T06:34:48.208Z,17.90
2018-09-15T06:37:16.447Z,17.90
2018-09-15T06:39:44.751Z,18.30
2018-09-15T06:42:12.983Z,18.30
2018-09-15T06:44:41.239Z,18.80
2018-09-15T06:47:09.488Z,18.90
2018-09-15T06:49:37.733Z,19.20
2018-09-15T06:52:06.512Z,20.00
2018-09-15T06:54:34.752Z,21.00
2018-09-15T06:57:03.016Z,21.90
2018-09-15T06:59:31.232Z,22.40
2018-09-15T07:01:59.462Z,22.20
2018-09-15T07:04:27.725Z,21.70
2018-09-15T07:06:56.104Z,21.40
2018-09-15T07:09:24.336Z,21.10
2018-09-15T07:11:52.571Z,20.50
2018-09-15T07:14:20.788Z,19.80
2018-09-15T07:16:49.044Z,19.20
2018-09-15T07:19:17.278Z,18.90
2018-09-15T07:21:45.500Z,18.70
2018-09-15T07:24:13.730Z,18.40
2018-09-15T07:26:41.952Z,18.20
2018-09-15T07:29:10.228Z,18.20
2018-09-15T07:31:38.523Z,18.20
2018-09-15T07:34:06.927Z,18.20
2018-09-15T07:36:35.236Z,18.20
2018-09-15T07:39:04.325Z,18.20
2018-09-15T07:41:32.557Z,18.40
2018-09-15T07:44:00.824Z,18.50
2018-09-15T07:46:29.036Z,18.50
2018-09-15T07:48:57.278Z,18.60
2018-09-15T07:51:26.280Z,18.80
2018-09-15T07:53:55.591Z,18.70
2018-09-15T07:56:23.816Z,18.70
2018-09-15T07:58:52.206Z,18.60
2018-09-15T08:01:21.023Z,18.50
2018-09-15T08:03:49.284Z,18.60
2018-09-15T08:06:17.545Z,18.60
2018-09-15T08:08:45.833Z,18.70
2018-09-15T08:11:14.136Z,18.50
2018-09-15T08:13:42.367Z,18.50
2018-09-15T08:16:10.675Z,18.60
2018-09-15T08:18:39.843Z,18.60
2018-09-15T08:21:08.324Z,18.60
2018-09-15T08:23:36.619Z,18.70
2018-09-15T08:26:04.927Z,18.80
2018-09-15T08:28:33.155Z,18.70
2018-09-15T08:31:01.393Z,18.80
2018-09-15T08:33:29.596Z,18.60
2018-09-15T08:35:57.863Z,18.60
2018-09-15T08:38:26.147Z,18.70
2018-09-15T08:40:54.563Z,18.90
2018-09-15T08:43:22.788Z,19.00
2018-09-15T08:45:52.639Z,19.20
2018-09-15T08:48:20.937Z,19.50
2018-09-15T08:50:49.180Z,19.70
2018-09-15T08:53:18.080Z,19.70
2018-09-15T08:55:46.328Z,19.80
2018-09-15T08:58:15.500Z,19.80
2018-09-15T09:00:43.740Z,19.70
2018-09-15T09:03:12.004Z,19.50
2018-09-15T09:05:40.895Z,19.50
2018-09-15T09:08:09.153Z,19.70
2018-09-15T09:10:37.437Z,19.80
2018-09-15T09:13:05.704Z,19.70
2018-09-15T09:15:34.920Z,19.70
2018-09-15T09:18:03.153Z,19.80
2018-09-15T09:20:31.415Z,19.90
2018-09-15T09:22:59.625Z,19.90
2018-09-15T09:25:27.876Z,20.10
2018-09-15T09:27:56.115Z,20.10
2018-09-15T09:30:24.390Z,20.10
2018-09-15T09:32:52.663Z,20.30
2018-09-15T09:35:20.888Z,20.30
2018-09-15T09:37:49.148Z,20.40
2018-09-15T09:40:17.339Z,20.50
2018-09-15T09:42:45.591Z,20.50
2018-09-15T09:45:13.839Z,20.40
2018-09-15T09:47:42.106Z,20.00
2018-09-15T09:50:10.279Z,19.90
2018-09-15T09:52:38.552Z,20.00
2018-09-15T09:55:06.796Z,20.00
2018-09-15T09:57:35.036Z,20.10
2018-09-15T10:00:03.243Z,20.20
2018-09-15T10:02:31.461Z,20.20
2018-09-15T10:04:59.723Z,20.00
2018-09-15T10:07:28.031Z,19.90
2018-09-15T10:09:56.341Z,19.90
2018-09-15T10:12:24.536Z,20.00
2018-09-15T10:14:52.804Z,20.00
2018-09-15T10:17:21.059Z,20.20
2018-09-15T10:19:49.281Z,20.40
2018-09-15T10:22:17.495Z,20.60
2018-09-15T10:24:45.757Z,20.90
2018-09-15T10:27:14.021Z,21.00
2018-09-15T10:29:42.247Z,21.20
2018-09-15T10:32:10.658Z,21.40
2018-09-15T10:34:38.798Z,21.40
2018-09-15T10:37:07.084Z,21.70
2018-09-15T10:39:35.341Z,21.70
2018-09-15T10:42:03.671Z,21.40
2018-09-15T10:44:31.936Z,20.60
2018-09-15T10:47:00.187Z,20.00
2018-09-15T10:49:28.430Z,19.50
2018-09-15T10:51:56.718Z,18.90
2018-09-15T10:54:24.972Z,18.50
2018-09-15T10:56:53.228Z,18.30
2018-09-15T10:59:21.455Z,18.10
2018-09-15T11:01:49.741Z,17.80
2018-09-15T11:04:17.948Z,17.30
2018-09-15T11:06:46.236Z,16.80
2018-09-15T11:09:14.558Z,16.60
2018-09-15T11:11:42.810Z,16.60
2018-09-15T11:14:11.112Z,16.40
2018-09-15T11:16:39.339Z,16.40
2018-09-15T11:19:07.617Z,16.50
2018-09-15T11:21:35.910Z,16.60
2018-09-15T11:24:04.164Z,16.60
2018-09-15T11:26:32.408Z,16.70
2018-09-15T11:29:01.426Z,16.80
2018-09-15T11:31:29.606Z,16.70
2018-09-15T11:33:57.851Z,16.80
2018-09-15T11:36:26.141Z,16.80
2018-09-15T11:38:54.453Z,16.80
2018-09-15T11:41:22.728Z,17.00
2018-09-15T11:43:50.999Z,17.10
2018-09-15T11:46:19.276Z,17.10
2018-09-15T11:48:47.575Z,17.10
2018-09-15T11:51:15.838Z,17.20
2018-09-15T11:53:44.174Z,17.40
2018-09-15T11:56:12.415Z,17.50
2018-09-15T11:58:40.728Z,17.60
2018-09-15T12:01:09.009Z,17.60
2018-09-15T12:03:37.377Z,17.60
2018-09-15T12:06:05.651Z,17.60
2018-09-15T12:08:33.920Z,17.80
2018-09-15T12:11:02.206Z,18.00
2018-09-15T12:13:30.445Z,18.10
2018-09-15T12:15:58.751Z,18.30
2018-09-15T12:18:27.065Z,18.50
2018-09-15T12:20:55.326Z,18.60
2018-09-15T12:23:23.569Z,18.70
2018-09-15T12:25:51.896Z,18.80
2018-09-15T12:28:20.176Z,19.00
2018-09-15T12:30:48.413Z,19.20
2018-09-15T12:33:16.687Z,19.30
2018-09-15T12:35:44.913Z,19.30
2018-09-15T12:38:13.174Z,19.30
2018-09-15T12:40:41.432Z,19.30
2018-09-15T12:43:09.987Z,19.30
2018-09-15T12:45:38.296Z,19.20
2018-09-15T12:48:06.736Z,19.30
2018-09-15T12:50:35.773Z,19.30
2018-09-15T12:53:03.996Z,19.30
2018-09-15T12:55:32.222Z,19.30
2018-09-15T12:58:00.517Z,19.30
2018-09-15T13:00:29.654Z,19.40
2018-09-15T13:02:57.994Z,19.40
2018-09-15T13:05:26.237Z,19.50
2018-09-15T13:07:54.502Z,19.50
2018-09-15T13:10:22.752Z,19.80
2018-09-15T13:12:51.045Z,19.80
2018-09-15T13:15:19.338Z,19.80
2018-09-15T13:17:47.648Z,19.90
2018-09-15T13:20:15.906Z,20.10
2018-09-15T13:22:44.191Z,20.20
2018-09-15T13:25:12.442Z,20.30
2018-09-15T13:27:40.796Z,20.40
2018-09-15T13:30:09.236Z,20.40
2018-09-15T13:32:37.481Z,20.20
2018-09-15T13:35:05.803Z,20.20
2018-09-15T13:37:34.096Z,20.20
2018-09-15T13:40:02.342Z,20.10
2018-09-15T13:42:30.600Z,20.00
2018-09-15T13:44:58.869Z,20.10
2018-09-15T13:47:27.117Z,20.30
2018-09-15T13:49:55.383Z,20.60
2018-09-15T13:52:23.611Z,20.70
2018-09-15T13:54:51.893Z,20.80
2018-09-15T13:57:20.518Z,20.80
2018-09-15T13:59:48.771Z,20.60
2018-09-15T14:02:17.048Z,20.80
2018-09-15T14:04:45.353Z,20.90
2018-09-15T14:07:13.644Z,20.80
2018-09-15T14:09:43.801Z,20.90
2018-09-15T14:12:10.220Z,21.00
2018-09-15T14:14:38.527Z,20.70
2018-09-15T14:17:06.895Z,20.70
2018-09-15T14:19:35.151Z,20.60
2018-09-15T14:22:03.479Z,20.50
2018-09-15T14:24:32.017Z,20.50
2018-09-15T14:27:00.476Z,20.40
2018-09-15T14:29:28.874Z,20.40
2018-09-15T14:31:57.247Z,20.30
2018-09-15T14:34:25.522Z,20.30
2018-09-15T14:36:54.674Z,20.30
2018-09-15T14:39:22.941Z,20.30
2018-09-15T14:41:51.204Z,20.40
2018-09-15T14:44:19.484Z,20.50
2018-09-15T14:46:47.752Z,20.30
2018-09-15T14:49:16.023Z,20.30
2018-09-15T14:51:44.368Z,20.30
2018-09-15T14:54:12.672Z,20.30
2018-09-15T14:56:40.924Z,20.40
2018-09-15T14:59:09.201Z,20.20
2018-09-15T15:01:37.520Z,20.00
2018-09-15T15:04:06.010Z,19.80
2018-09-15T15:06:34.292Z,19.60
2018-09-15T15:09:02.609Z,19.40
2018-09-15T15:11:31.664Z,19.20
2018-09-15T15:13:59.980Z,19.20
2018-09-15T15:16:28.257Z,19.00
2018-09-15T15:18:56.552Z,18.90
2018-09-15T15:21:24.811Z,18.90
2018-09-15T15:23:53.093Z,18.90
2018-09-15T15:26:21.430Z,18.80
2018-09-15T15:28:49.723Z,18.80
2018-09-15T15:31:17.980Z,18.80
2018-09-15T15:33:46.266Z,18.70
2018-09-15T15:36:14.516Z,18.70
2018-09-15T15:38:43.335Z,18.80
2018-09-15T15:41:11.589Z,18.90
2018-09-15T15:43:39.881Z,19.00
2018-09-15T15:46:08.164Z,19.00
2018-09-15T15:48:36.463Z,19.00
2018-09-15T15:51:04.730Z,19.00
2018-09-15T15:53:33.009Z,19.00
2018-09-15T15:56:01.775Z,19.10
2018-09-15T15:58:30.070Z,19.00
2018-09-15T16:00:58.410Z,19.00
2018-09-15T16:03:27.275Z,19.00
2018-09-15T16:05:55.548Z,19.00
2018-09-15T16:08:23.861Z,18.90
2018-09-15T16:10:52.197Z,18.80
2018-09-15T16:13:21.365Z,18.70
2018-09-15T16:15:49.692Z,18.40
2018-09-15T16:18:17.999Z,18.10
2018-09-15T16:20:46.277Z,18.00
2018-09-15T16:23:14.522Z,17.90
2018-09-15T16:25:42.858Z,17.70
2018-09-15T16:28:11.105Z,17.60
2018-09-15T16:30:39.397Z,17.50
2018-09-15T16:33:07.669Z,17.50
2018-09-15T16:35:35.937Z,17.30
2018-09-15T16:38:04.268Z,17.30
2018-09-15T16:40:32.596Z,17.20
2018-09-15T16:43:00.841Z,17.00
2018-09-15T16:45:29.085Z,16.90
2018-09-15T16:47:57.364Z,16.80
2018-09-15T16:50:25.643Z,16.90
2018-09-15T16:52:53.900Z,17.00
2018-09-15T16:55:22.166Z,17.10
2018-09-15T16:57:50.399Z,17.20
2018-09-15T17:00:18.674Z,17.10
2018-09-15T17:02:46.913Z,16.90
2018-09-15T17:05:15.196Z,16.70
2018-09-15T17:07:43.452Z,16.60
2018-09-15T17:10:11.765Z,16.50
2018-09-15T17:12:40.023Z,16.30
2018-09-15T17:15:08.348Z,16.30
2018-09-15T17:17:36.654Z,16.20
2018-09-15T17:20:04.940Z,16.00
2018-09-15T17:22:33.284Z,15.90
2018-09-15T17:25:01.556Z,15.90
2018-09-15T17:27:29.848Z,15.80
2018-09-15T17:29:58.134Z,15.90
2018-09-15T17:32:26.412Z,15.90
2018-09-15T17:34:54.711Z,16.00
2018-09-15T17:37:23.027Z,16.00
2018-09-15T17:39:51.343Z,15.90
2018-09-15T17:42:19.654Z,15.80
2018-09-15T17:44:47.954Z,15.60
2018-09-15T17:47:16.388Z,15.50
2018-09-15T17:49:44.689Z,15.40
2018-09-15T17:52:13.004Z,15.30
2018-09-15T17:54:41.388Z,15.30
2018-09-15T17:57:10.175Z,15.20
2018-09-15T17:59:38.547Z,15.10
2018-09-15T18:02:06.837Z,15.10
2018-09-15T18:04:35.193Z,15.00
2018-09-15T18:07:03.920Z,14.90
2018-09-15T18:09:32.282Z,14.90
2018-09-15T18:12:00.683Z,14.90
2018-09-15T18:14:29.173Z,14.90
2018-09-15T18:16:57.871Z,15.00
2018-09-15T18:19:26.751Z,15.00
2018-09-15T18:21:55.678Z,15.10
2018-09-15T18:24:24.440Z,15.20
2018-09-15T18:26:52.750Z,15.20
2018-09-15T18:29:21.029Z,15.10
2018-09-15T18:31:50.490Z,15.10
2018-09-15T18:34:18.786Z,15.00
2018-09-15T18:36:47.205Z,15.00
2018-09-15T18:39:15.731Z,15.00
2018-09-15T18:41:44.016Z,14.90
2018-09-15T18:44:12.326Z,14.90
2018-09-15T18:46:40.664Z,14.80
2018-09-15T18:49:08.953Z,14.80
2018-09-15T18:51:37.316Z,14.60
2018-09-15T18:54:05.650Z,14.60
2018-09-15T18:56:34.045Z,14.50
2018-09-15T18:59:02.330Z,14.40
2018-09-15T19:01:30.792Z,14.30
2018-09-15T19:03:59.128Z,14.30
2018-09-15T19:06:27.409Z,14.30
2018-09-15T19:08:55.731Z,14.30
2018-09-15T19:11:24.029Z,14.20
2018-09-15T19:13:52.661Z,14.20
2018-09-15T19:16:21.100Z,14.30
2018-09-15T19:18:49.421Z,14.30
2018-09-15T19:21:17.722Z,14.30
2018-09-15T19:23:46.092Z,14.40
2018-09-15T19:26:14.388Z,14.30
2018-09-15T19:28:42.698Z,14.40
2018-09-15T19:31:10.986Z,14.50
2018-09-15T19:33:39.281Z,14.40
2018-09-15T19:36:07.953Z,14.30
2018-09-15T19:38:36.384Z,14.20
2018-09-15T19:41:04.856Z,14.30
2018-09-15T19:43:33.190Z,14.30
2018-09-15T19:46:01.635Z,14.20
2018-09-15T19:48:29.949Z,14.20
2018-09-15T19:50:58.575Z,14.20
2018-09-15T19:53:26.888Z,14.20
2018-09-15T19:55:55.222Z,14.10
2018-09-15T19:58:23.656Z,14.00
2018-09-15T20:00:52.181Z,13.90
2018-09-15T20:03:20.516Z,13.80
2018-09-15T20:05:48.824Z,13.80
2018-09-15T20:08:17.123Z,13.70
2018-09-15T20:10:45.425Z,13.60
2018-09-15T20:13:15.600Z,13.50
2018-09-15T20:15:42.993Z,13.50
2018-09-15T20:18:10.278Z,13.40
2018-09-15T20:20:37.636Z,13.40
2018-09-15T20:23:06.106Z,13.40
2018-09-15T20:25:35.276Z,13.40
2018-09-15T20:28:03.617Z,13.50
2018-09-15T20:30:31.953Z,13.50
2018-09-15T20:33:00.328Z,13.60
2018-09-15T20:35:28.603Z,13.70
2018-09-15T20:37:56.893Z,13.70
2018-09-15T20:40:25.323Z,13.60
2018-09-15T20:42:53.651Z,13.50
2018-09-15T20:45:22.342Z,13.50
2018-09-15T20:47:50.764Z,13.40
2018-09-15T20:50:19.130Z,13.30
2018-09-15T20:52:48.045Z,13.30
2018-09-15T20:55:16.338Z,13.20
2018-09-15T20:57:45.047Z,13.10
2018-09-15T21:00:13.390Z,13.10
2018-09-15T21:02:42.009Z,13.00
2018-09-15T21:05:10.867Z,13.00
2018-09-15T21:07:39.310Z,12.90
2018-09-15T21:10:07.716Z,12.90
2018-09-15T21:12:36.942Z,12.90
2018-09-15T21:15:05.629Z,12.80
2018-09-15T21:17:33.927Z,12.80
2018-09-15T21:20:02.229Z,12.80
2018-09-15T21:22:30.493Z,12.70
2018-09-15T21:24:58.807Z,12.70
2018-09-15T21:27:27.076Z,12.70
2018-09-15T21:29:55.361Z,12.70
2018-09-15T21:32:23.720Z,12.60
2018-09-15T21:34:52.088Z,12.60
2018-09-15T21:37:20.404Z,12.60
2018-09-15T21:39:48.686Z,12.50
2018-09-15T21:42:16.985Z,12.50
2018-09-15T21:44:45.262Z,12.50
2018-09-15T21:47:13.548Z,12.50
2018-09-15T21:49:41.840Z,12.50
2018-09-15T21:52:10.121Z,12.40
2018-09-15T21:54:38.377Z,12.40
2018-09-15T21:57:06.604Z,12.30
2018-09-15T21:59:34.852Z,12.30
2018-09-15T22:02:03.105Z,12.30
2018-09-15T22:04:31.339Z,12.30
2018-09-15T22:06:59.592Z,12.30
2018-09-15T22:09:27.863Z,12.30
2018-09-15T22:11:56.095Z,12.30
2018-09-15T22:14:24.363Z,12.30
2018-09-15T22:16:52.671Z,12.30
2018-09-15T22:19:20.888Z,12.20
2018-09-15T22:21:49.157Z,12.20
2018-09-15T22:24:17.408Z,12.20
2018-09-15T22:26:45.657Z,12.20
2018-09-15T22:29:13.886Z,12.20
2018-09-15T22:31:42.135Z,12.20
2018-09-15T22:34:10.449Z,12.20
2018-09-15T22:36:38.721Z,12.20
2018-09-15T22:39:07.983Z,12.20
2018-09-15T22:41:36.773Z,12.20
2018-09-15T22:44:05.021Z,12.20
2018-09-15T22:46:33.254Z,12.20
2018-09-15T22:49:01.512Z,12.20
2018-09-15T22:51:29.751Z,12.20
2018-09-15T22:53:58.007Z,12.20
2018-09-15T22:56:26.271Z,12.20
2018-09-15T22:58:54.541Z,12.20
2018-09-15T23:01:22.780Z,12.10
2018-09-15T23:03:56.201Z,12.10
2018-09-15T23:06:24.627Z,12.10
2018-09-15T23:08:52.868Z,12.00
2018-09-15T23:11:21.094Z,12.00
2018-09-15T23:13:49.339Z,11.90
2018-09-15T23:16:18.084Z,11.90
2018-09-15T23:18:46.293Z,11.90
2018-09-15T23:21:14.505Z,11.90
2018-09-15T23:23:42.758Z,11.80
2018-09-15T23:26:10.987Z,11.80
2018-09-15T23:28:39.256Z,11.80
2018-09-15T23:31:07.520Z,11.80
2018-09-15T23:33:35.780Z,11.80
2018-09-15T23:36:04.523Z,11.70
2018-09-15T23:38:32.767Z,11.80
2018-09-15T23:41:00.990Z,11.80
2018-09-15T23:43:29.264Z,11.80
2018-09-15T23:45:57.485Z,11.90
2018-09-15T23:48:25.709Z,12.10
2018-09-15T23:50:53.969Z,12.20
2018-09-15T23:53:22.233Z,12.30
2018-09-15T23:55:50.509Z,12.50
2018-09-15T23:58:18.732Z,12.60
